sensor_id;sensor_type;location;lat;lon;timestamp;temperature;humidity
70271;SHT31;57680;54.292;18.598;2024-01-15T00:02:12;1.40;91.56
70271;SHT31;57680;54.292;18.598;2024-01-15T00:04:41;1.44;91.60
70271;SHT31;57680;54.292;18.598;2024-01-15T00:07:07;1.47;91.24
70271;SHT31;57680;54.292;18.598;2024-01-15T00:09:33;1.42;91.69
70271;SHT31;57680;54.292;18.598;2024-01-15T00:11:59;1.37;92.08
70271;SHT31;57680;54.292;18.598;2024-01-15T00:14:24;1.34;92.27
70271;SHT31;57680;54.292;18.598;2024-01-15T00:16:50;1.35;92.71
70271;SHT31;57680;54.292;18.598;2024-01-15T00:19:15;1.31;93.17
70271;SHT31;57680;54.292;18.598;2024-01-15T00:21:40;1.27;93.58
70271;SHT31;57680;54.292;18.598;2024-01-15T00:24:06;1.20;94.13
70271;SHT31;57680;54.292;18.598;2024-01-15T00:26:31;1.14;94.56
70271;SHT31;57680;54.292;18.598;2024-01-15T00:28:56;1.05;95.01
70271;SHT31;57680;54.292;18.598;2024-01-15T00:31:21;1.01;95.20
70271;SHT31;57680;54.292;18.598;2024-01-15T00:33:47;0.91;95.45
70271;SHT31;57680;54.292;18.598;2024-01-15T00:36:12;0.93;95.40
70271;SHT31;57680;54.292;18.598;2024-01-15T00:38:37;0.87;95.20
70271;SHT31;57680;54.292;18.598;2024-01-15T00:41:03;0.84;94.87
70271;SHT31;57680;54.292;18.598;2024-01-15T00:43:29;0.89;94.61
70271;SHT31;57680;54.292;18.598;2024-01-15T00:45:54;0.91;94.21
70271;SHT31;57680;54.292;18.598;2024-01-15T00:48:19;0.94;93.04
70271;SHT31;57680;54.292;18.598;2024-01-15T00:50:45;0.99;92.49
70271;SHT31;57680;54.292;18.598;2024-01-15T00:53:10;1.00;92.31
70271;SHT31;57680;54.292;18.598;2024-01-15T00:55:35;1.07;92.13
70271;SHT31;57680;54.292;18.598;2024-01-15T00:58:01;1.07;92.18
70271;SHT31;57680;54.292;18.598;2024-01-15T01:00:26;1.10;92.08
70271;SHT31;57680;54.292;18.598;2024-01-15T01:02:51;1.10;92.22
70271;SHT31;57680;54.292;18.598;2024-01-15T01:05:17;1.13;91.97
70271;SHT31;57680;54.292;18.598;2024-01-15T01:07:42;1.14;92.14
70271;SHT31;57680;54.292;18.598;2024-01-15T01:10:08;1.16;92.32
70271;SHT31;57680;54.292;18.598;2024-01-15T01:12:33;1.10;92.35
70271;SHT31;57680;54.292;18.598;2024-01-15T01:14:58;1.11;92.42
70271;SHT31;57680;54.292;18.598;2024-01-15T01:17:25;1.14;92.43
70271;SHT31;57680;54.292;18.598;2024-01-15T01:19:50;1.10;92.56
70271;SHT31;57680;54.292;18.598;2024-01-15T01:22:15;1.10;92.91
70271;SHT31;57680;54.292;18.598;2024-01-15T01:24:41;1.08;93.17
70271;SHT31;57680;54.292;18.598;2024-01-15T01:27:06;1.07;93.20
70271;SHT31;57680;54.292;18.598;2024-01-15T01:29:31;1.05;93.39
70271;SHT31;57680;54.292;18.598;2024-01-15T01:31:57;0.99;93.39
70271;SHT31;57680;54.292;18.598;2024-01-15T01:34:22;1.00;93.69
70271;SHT31;57680;54.292;18.598;2024-01-15T01:36:48;1.00;93.96
70271;SHT31;57680;54.292;18.598;2024-01-15T01:39:13;0.91;94.01
70271;SHT31;57680;54.292;18.598;2024-01-15T01:41:39;0.87;94.28
70271;SHT31;57680;54.292;18.598;2024-01-15T01:44:04;0.86;94.24
70271;SHT31;57680;54.292;18.598;2024-01-15T01:46:30;0.87;94.45
70271;SHT31;57680;54.292;18.598;2024-01-15T01:48:56;0.87;94.38
70271;SHT31;57680;54.292;18.598;2024-01-15T01:51:23;0.90;94.42
70271;SHT31;57680;54.292;18.598;2024-01-15T01:53:50;0.89;94.25
70271;SHT31;57680;54.292;18.598;2024-01-15T01:56:16;0.96;93.88
70271;SHT31;57680;54.292;18.598;2024-01-15T01:58:42;0.93;93.75
70271;SHT31;57680;54.292;18.598;2024-01-15T02:01:07;0.91;93.65
70271;SHT31;57680;54.292;18.598;2024-01-15T02:03:33;0.96;93.58
70271;SHT31;57680;54.292;18.598;2024-01-15T02:05:59;0.97;93.46
70271;SHT31;57680;54.292;18.598;2024-01-15T02:08:25;0.97;93.31
70271;SHT31;57680;54.292;18.598;2024-01-15T02:10:51;1.01;93.28
70271;SHT31;57680;54.292;18.598;2024-01-15T02:13:17;0.99;93.27
70271;SHT31;57680;54.292;18.598;2024-01-15T02:15:43;0.97;93.51
70271;SHT31;57680;54.292;18.598;2024-01-15T02:18:08;0.94;93.76
70271;SHT31;57680;54.292;18.598;2024-01-15T02:20:33;0.93;93.86
70271;SHT31;57680;54.292;18.598;2024-01-15T02:23:13;0.94;94.30
70271;SHT31;57680;54.292;18.598;2024-01-15T02:25:40;0.94;94.69
70271;SHT31;57680;54.292;18.598;2024-01-15T02:28:08;0.91;95.15
70271;SHT31;57680;54.292;18.598;2024-01-15T02:30:37;0.94;95.39
70271;SHT31;57680;54.292;18.598;2024-01-15T02:33:02;0.84;95.52
70271;SHT31;57680;54.292;18.598;2024-01-15T02:35:28;0.80;95.86
70271;SHT31;57680;54.292;18.598;2024-01-15T02:37:53;0.73;95.91
70271;SHT31;57680;54.292;18.598;2024-01-15T02:40:18;0.68;96.13
70271;SHT31;57680;54.292;18.598;2024-01-15T02:42:43;0.66;96.22
70271;SHT31;57680;54.292;18.598;2024-01-15T02:45:09;0.63;96.07
70271;SHT31;57680;54.292;18.598;2024-01-15T02:47:34;0.68;95.88
70271;SHT31;57680;54.292;18.598;2024-01-15T02:49:59;0.72;95.68
70271;SHT31;57680;54.292;18.598;2024-01-15T02:52:24;0.68;95.62
70271;SHT31;57680;54.292;18.598;2024-01-15T02:54:51;0.69;95.33
70271;SHT31;57680;54.292;18.598;2024-01-15T02:57:16;0.69;95.37
70271;SHT31;57680;54.292;18.598;2024-01-15T02:59:41;0.66;95.39
70271;SHT31;57680;54.292;18.598;2024-01-15T03:02:06;0.66;95.48
70271;SHT31;57680;54.292;18.598;2024-01-15T03:04:32;0.63;95.42
70271;SHT31;57680;54.292;18.598;2024-01-15T03:06:57;0.66;95.59
70271;SHT31;57680;54.292;18.598;2024-01-15T03:09:22;0.65;95.51
70271;SHT31;57680;54.292;18.598;2024-01-15T03:11:48;0.68;95.62
70271;SHT31;57680;54.292;18.598;2024-01-15T03:14:13;0.70;95.89
70271;SHT31;57680;54.292;18.598;2024-01-15T03:16:38;0.73;96.00
70271;SHT31;57680;54.292;18.598;2024-01-15T03:19:04;0.75;96.16
70271;SHT31;57680;54.292;18.598;2024-01-15T03:21:29;0.72;96.36
70271;SHT31;57680;54.292;18.598;2024-01-15T03:23:54;0.75;96.44
70271;SHT31;57680;54.292;18.598;2024-01-15T03:26:20;0.73;96.60
70271;SHT31;57680;54.292;18.598;2024-01-15T03:28:45;0.69;96.49
70271;SHT31;57680;54.292;18.598;2024-01-15T03:31:10;0.68;96.91
70271;SHT31;57680;54.292;18.598;2024-01-15T03:33:36;0.70;96.85
70271;SHT31;57680;54.292;18.598;2024-01-15T03:36:01;0.65;96.98
70271;SHT31;57680;54.292;18.598;2024-01-15T03:38:29;0.65;97.39
70271;SHT31;57680;54.292;18.598;2024-01-15T03:40:55;0.70;97.80
70271;SHT31;57680;54.292;18.598;2024-01-15T03:43:20;0.73;97.60
70271;SHT31;57680;54.292;18.598;2024-01-15T03:45:45;0.69;97.57
70271;SHT31;57680;54.292;18.598;2024-01-15T03:48:11;0.69;97.54
70271;SHT31;57680;54.292;18.598;2024-01-15T03:50:36;0.73;97.55
70271;SHT31;57680;54.292;18.598;2024-01-15T03:53:02;0.69;97.62
70271;SHT31;57680;54.292;18.598;2024-01-15T03:55:27;0.68;97.81
70271;SHT31;57680;54.292;18.598;2024-01-15T03:57:52;0.69;97.76
70271;SHT31;57680;54.292;18.598;2024-01-15T04:00:18;0.65;97.84
70271;SHT31;57680;54.292;18.598;2024-01-15T04:02:43;0.68;97.93
70271;SHT31;57680;54.292;18.598;2024-01-15T04:05:08;0.65;98.04
70271;SHT31;57680;54.292;18.598;2024-01-15T04:07:34;0.66;98.10
70271;SHT31;57680;54.292;18.598;2024-01-15T04:09:59;0.65;98.27
70271;SHT31;57680;54.292;18.598;2024-01-15T04:12:25;0.68;98.31
70271;SHT31;57680;54.292;18.598;2024-01-15T04:14:50;0.66;98.17
70271;SHT31;57680;54.292;18.598;2024-01-15T04:17:16;0.68;98.15
70271;SHT31;57680;54.292;18.598;2024-01-15T04:19:44;0.66;98.33
70271;SHT31;57680;54.292;18.598;2024-01-15T04:22:09;0.65;98.31
70271;SHT31;57680;54.292;18.598;2024-01-15T04:24:34;0.66;98.42
70271;SHT31;57680;54.292;18.598;2024-01-15T04:27:00;0.63;98.38
70271;SHT31;57680;54.292;18.598;2024-01-15T04:29:25;0.69;98.35
70271;SHT31;57680;54.292;18.598;2024-01-15T04:31:52;0.66;98.18
70271;SHT31;57680;54.292;18.598;2024-01-15T04:34:17;0.72;98.29
70271;SHT31;57680;54.292;18.598;2024-01-15T04:36:43;0.70;98.08
70271;SHT31;57680;54.292;18.598;2024-01-15T04:39:08;0.72;97.91
70271;SHT31;57680;54.292;18.598;2024-01-15T04:41:33;0.75;97.88
70271;SHT31;57680;54.292;18.598;2024-01-15T04:43:59;0.70;97.85
70271;SHT31;57680;54.292;18.598;2024-01-15T04:46:24;0.66;97.99
70271;SHT31;57680;54.292;18.598;2024-01-15T04:48:49;0.66;97.86
70271;SHT31;57680;54.292;18.598;2024-01-15T04:51:15;0.72;97.99
70271;SHT31;57680;54.292;18.598;2024-01-15T04:53:41;0.66;97.53
70271;SHT31;57680;54.292;18.598;2024-01-15T04:56:06;0.72;98.18
70271;SHT31;57680;54.292;18.598;2024-01-15T04:58:32;0.75;98.22
70271;SHT31;57680;54.292;18.598;2024-01-15T05:00:57;0.79;98.12
70271;SHT31;57680;54.292;18.598;2024-01-15T05:03:22;0.75;97.73
70271;SHT31;57680;54.292;18.598;2024-01-15T05:05:47;0.73;97.67
70271;SHT31;57680;54.292;18.598;2024-01-15T05:08:13;0.75;97.65
70271;SHT31;57680;54.292;18.598;2024-01-15T05:10:38;0.73;97.49
70271;SHT31;57680;54.292;18.598;2024-01-15T05:13:03;0.70;97.47
70271;SHT31;57680;54.292;18.598;2024-01-15T05:15:29;0.66;97.35
70271;SHT31;57680;54.292;18.598;2024-01-15T05:17:54;0.69;97.29
70271;SHT31;57680;54.292;18.598;2024-01-15T05:20:19;0.68;97.29
70271;SHT31;57680;54.292;18.598;2024-01-15T05:22:45;0.72;97.32
70271;SHT31;57680;54.292;18.598;2024-01-15T05:25:10;0.70;97.19
70271;SHT31;57680;54.292;18.598;2024-01-15T05:27:35;0.76;97.15
70271;SHT31;57680;54.292;18.598;2024-01-15T05:30:00;0.79;96.72
70271;SHT31;57680;54.292;18.598;2024-01-15T05:32:26;0.79;96.72
70271;SHT31;57680;54.292;18.598;2024-01-15T05:34:51;0.73;96.31
70271;SHT31;57680;54.292;18.598;2024-01-15T05:37:16;0.72;96.10
70271;SHT31;57680;54.292;18.598;2024-01-15T05:39:42;0.68;95.96
70271;SHT31;57680;54.292;18.598;2024-01-15T05:42:07;0.66;95.80
70271;SHT31;57680;54.292;18.598;2024-01-15T05:44:32;0.72;95.21
70271;SHT31;57680;54.292;18.598;2024-01-15T05:46:57;0.76;94.00
70271;SHT31;57680;54.292;18.598;2024-01-15T05:49:23;0.93;92.54
70271;SHT31;57680;54.292;18.598;2024-01-15T05:51:48;0.94;91.94
70271;SHT31;57680;54.292;18.598;2024-01-15T05:54:13;0.96;91.80
70271;SHT31;57680;54.292;18.598;2024-01-15T05:56:39;0.90;91.75
70271;SHT31;57680;54.292;18.598;2024-01-15T05:59:07;0.75;92.69
70271;SHT31;57680;54.292;18.598;2024-01-15T06:01:32;0.72;93.24
70271;SHT31;57680;54.292;18.598;2024-01-15T06:03:58;0.72;93.49
70271;SHT31;57680;54.292;18.598;2024-01-15T06:06:23;0.63;93.55
70271;SHT31;57680;54.292;18.598;2024-01-15T06:08:48;0.62;92.37
70271;SHT31;57680;54.292;18.598;2024-01-15T06:11:14;0.55;92.45
70271;SHT31;57680;54.292;18.598;2024-01-15T06:13:39;0.49;91.70
70271;SHT31;57680;54.292;18.598;2024-01-15T06:16:13;0.46;91.14
70271;SHT31;57680;54.292;18.598;2024-01-15T06:18:38;0.41;91.21
70271;SHT31;57680;54.292;18.598;2024-01-15T06:21:03;0.32;91.32
70271;SHT31;57680;54.292;18.598;2024-01-15T06:23:29;0.35;91.02
70271;SHT31;57680;54.292;18.598;2024-01-15T06:25:54;0.28;91.11
70271;SHT31;57680;54.292;18.598;2024-01-15T06:28:19;0.32;91.02
70271;SHT31;57680;54.292;18.598;2024-01-15T06:30:45;0.26;90.97
70271;SHT31;57680;54.292;18.598;2024-01-15T06:33:10;0.26;91.24
70271;SHT31;57680;54.292;18.598;2024-01-15T06:35:35;0.18;91.36
70271;SHT31;57680;54.292;18.598;2024-01-15T06:38:01;0.26;90.77
70271;SHT31;57680;54.292;18.598;2024-01-15T06:40:26;0.26;90.75
70271;SHT31;57680;54.292;18.598;2024-01-15T06:42:51;0.19;90.83
70271;SHT31;57680;54.292;18.598;2024-01-15T06:45:16;0.14;91.41
70271;SHT31;57680;54.292;18.598;2024-01-15T06:47:42;0.11;91.57
70271;SHT31;57680;54.292;18.598;2024-01-15T06:50:07;0.15;91.79
70271;SHT31;57680;54.292;18.598;2024-01-15T06:52:33;0.12;91.97
70271;SHT31;57680;54.292;18.598;2024-01-15T06:54:58;0.10;92.11
70271;SHT31;57680;54.292;18.598;2024-01-15T06:57:23;0.08;92.04
70271;SHT31;57680;54.292;18.598;2024-01-15T06:59:49;0.04;92.46
70271;SHT31;57680;54.292;18.598;2024-01-15T07:02:14;-0.06;92.57
70271;SHT31;57680;54.292;18.598;2024-01-15T07:04:39;-0.03;93.09
70271;SHT31;57680;54.292;18.598;2024-01-15T07:07:05;-0.07;93.23
70271;SHT31;57680;54.292;18.598;2024-01-15T07:09:30;-0.09;93.30
70271;SHT31;57680;54.292;18.598;2024-01-15T07:11:55;-0.06;93.41
70271;SHT31;57680;54.292;18.598;2024-01-15T07:14:20;-0.10;93.40
70271;SHT31;57680;54.292;18.598;2024-01-15T07:16:46;-0.06;93.82
70271;SHT31;57680;54.292;18.598;2024-01-15T07:19:11;0.04;94.23
70271;SHT31;57680;54.292;18.598;2024-01-15T07:21:36;0.17;94.55
70271;SHT31;57680;54.292;18.598;2024-01-15T07:24:02;0.22;95.15
70271;SHT31;57680;54.292;18.598;2024-01-15T07:26:27;0.18;95.30
70271;SHT31;57680;54.292;18.598;2024-01-15T07:28:52;0.14;95.60
70271;SHT31;57680;54.292;18.598;2024-01-15T07:31:18;0.14;96.00
70271;SHT31;57680;54.292;18.598;2024-01-15T07:33:44;0.10;96.41
70271;SHT31;57680;54.292;18.598;2024-01-15T07:36:09;0.08;96.45
70271;SHT31;57680;54.292;18.598;2024-01-15T07:38:34;0.07;96.62
70271;SHT31;57680;54.292;18.598;2024-01-15T07:40:59;0.04;96.61
70271;SHT31;57680;54.292;18.598;2024-01-15T07:43:25;0.05;96.60
70271;SHT31;57680;54.292;18.598;2024-01-15T07:45:50;0.05;96.60
70271;SHT31;57680;54.292;18.598;2024-01-15T07:48:15;0.10;96.57
70271;SHT31;57680;54.292;18.598;2024-01-15T07:50:41;0.12;96.20
70271;SHT31;57680;54.292;18.598;2024-01-15T07:53:06;0.15;95.77
70271;SHT31;57680;54.292;18.598;2024-01-15T07:55:32;0.24;95.29
70271;SHT31;57680;54.292;18.598;2024-01-15T07:57:57;0.29;94.80
70271;SHT31;57680;54.292;18.598;2024-01-15T08:00:22;0.32;93.94
70271;SHT31;57680;54.292;18.598;2024-01-15T08:02:48;0.44;93.54
70271;SHT31;57680;54.292;18.598;2024-01-15T08:05:13;0.50;92.97
70271;SHT31;57680;54.292;18.598;2024-01-15T08:07:38;0.63;92.62
70271;SHT31;57680;54.292;18.598;2024-01-15T08:10:04;0.69;92.18
70271;SHT31;57680;54.292;18.598;2024-01-15T08:12:29;0.72;92.03
70271;SHT31;57680;54.292;18.598;2024-01-15T08:14:55;0.75;92.03
70271;SHT31;57680;54.292;18.598;2024-01-15T08:17:20;0.96;91.90
70271;SHT31;57680;54.292;18.598;2024-01-15T08:19:45;1.13;91.55
70271;SHT31;57680;54.292;18.598;2024-01-15T08:22:10;1.10;91.20
70271;SHT31;57680;54.292;18.598;2024-01-15T08:24:36;1.11;90.95
70271;SHT31;57680;54.292;18.598;2024-01-15T08:27:01;1.17;90.51
70271;SHT31;57680;54.292;18.598;2024-01-15T08:29:27;1.26;90.31
70271;SHT31;57680;54.292;18.598;2024-01-15T08:31:52;1.35;89.86
70271;SHT31;57680;54.292;18.598;2024-01-15T08:34:17;1.37;90.70
70271;SHT31;57680;54.292;18.598;2024-01-15T08:36:43;1.47;89.43
70271;SHT31;57680;54.292;18.598;2024-01-15T08:39:08;1.52;88.49
70271;SHT31;57680;54.292;18.598;2024-01-15T08:41:33;1.54;87.99
70271;SHT31;57680;54.292;18.598;2024-01-15T08:43:58;1.44;88.33
70271;SHT31;57680;54.292;18.598;2024-01-15T08:46:24;1.30;88.79
70271;SHT31;57680;54.292;18.598;2024-01-15T08:48:49;1.13;90.61
70271;SHT31;57680;54.292;18.598;2024-01-15T08:51:14;1.01;92.20
70271;SHT31;57680;54.292;18.598;2024-01-15T08:53:40;0.91;93.62
70271;SHT31;57680;54.292;18.598;2024-01-15T08:56:05;0.86;94.55
70271;SHT31;57680;54.292;18.598;2024-01-15T08:58:31;0.90;94.96
70271;SHT31;57680;54.292;18.598;2024-01-15T09:00:56;0.94;95.07
70271;SHT31;57680;54.292;18.598;2024-01-15T09:03:21;1.13;94.88
70271;SHT31;57680;54.292;18.598;2024-01-15T09:05:46;1.58;94.25
70271;SHT31;57680;54.292;18.598;2024-01-15T09:08:12;2.06;93.31
70271;SHT31;57680;54.292;18.598;2024-01-15T09:10:37;2.44;90.23
70271;SHT31;57680;54.292;18.598;2024-01-15T09:13:02;2.60;88.25
70271;SHT31;57680;54.292;18.598;2024-01-15T09:15:28;2.68;86.69
70271;SHT31;57680;54.292;18.598;2024-01-15T09:17:53;2.47;84.82
70271;SHT31;57680;54.292;18.598;2024-01-15T09:20:19;2.27;84.79
70271;SHT31;57680;54.292;18.598;2024-01-15T09:22:44;2.06;85.30
70271;SHT31;57680;54.292;18.598;2024-01-15T09:25:09;2.13;84.15
70271;SHT31;57680;54.292;18.598;2024-01-15T09:27:35;2.19;84.24
70271;SHT31;57680;54.292;18.598;2024-01-15T09:30:02;2.31;83.31
70271;SHT31;57680;54.292;18.598;2024-01-15T09:32:27;2.23;81.46
70271;SHT31;57680;54.292;18.598;2024-01-15T09:34:52;2.05;80.84
70271;SHT31;57680;54.292;18.598;2024-01-15T09:37:18;2.17;80.94
70271;SHT31;57680;54.292;18.598;2024-01-15T09:39:43;2.34;80.05
70271;SHT31;57680;54.292;18.598;2024-01-15T09:42:09;2.47;79.89
70271;SHT31;57680;54.292;18.598;2024-01-15T09:44:35;2.57;79.40
70271;SHT31;57680;54.292;18.598;2024-01-15T09:47:00;2.71;78.98
70271;SHT31;57680;54.292;18.598;2024-01-15T09:49:26;2.75;78.07
70271;SHT31;57680;54.292;18.598;2024-01-15T09:51:51;2.77;77.11
70271;SHT31;57680;54.292;18.598;2024-01-15T09:54:17;2.84;77.54
70271;SHT31;57680;54.292;18.598;2024-01-15T09:56:45;2.78;77.17
70271;SHT31;57680;54.292;18.598;2024-01-15T09:59:10;2.85;77.07
70271;SHT31;57680;54.292;18.598;2024-01-15T10:01:37;2.77;76.78
70271;SHT31;57680;54.292;18.598;2024-01-15T10:04:03;2.70;76.98
70271;SHT31;57680;54.292;18.598;2024-01-15T10:06:28;2.74;77.48
70271;SHT31;57680;54.292;18.598;2024-01-15T10:08:54;2.92;77.71
70271;SHT31;57680;54.292;18.598;2024-01-15T10:11:20;3.03;77.29
70271;SHT31;57680;54.292;18.598;2024-01-15T10:13:49;3.20;77.46
70271;SHT31;57680;54.292;18.598;2024-01-15T10:16:14;2.99;77.95
70271;SHT31;57680;54.292;18.598;2024-01-15T10:18:39;3.09;78.24
70271;SHT31;57680;54.292;18.598;2024-01-15T10:21:08;3.02;77.87
70271;SHT31;57680;54.292;18.598;2024-01-15T10:23:33;3.01;78.33
70271;SHT31;57680;54.292;18.598;2024-01-15T10:25:58;2.92;78.28
70271;SHT31;57680;54.292;18.598;2024-01-15T10:28:28;2.99;79.25
70271;SHT31;57680;54.292;18.598;2024-01-15T10:30:57;2.96;78.97
70271;SHT31;57680;54.292;18.598;2024-01-15T10:33:23;2.85;78.75
70271;SHT31;57680;54.292;18.598;2024-01-15T10:35:48;2.80;79.24
70271;SHT31;57680;54.292;18.598;2024-01-15T10:38:13;2.78;79.34
70271;SHT31;57680;54.292;18.598;2024-01-15T10:40:39;2.78;78.93
70271;SHT31;57680;54.292;18.598;2024-01-15T10:43:04;2.77;79.73
70271;SHT31;57680;54.292;18.598;2024-01-15T10:45:29;2.91;80.22
70271;SHT31;57680;54.292;18.598;2024-01-15T10:47:54;2.74;79.39
70271;SHT31;57680;54.292;18.598;2024-01-15T10:50:20;2.50;80.01
70271;SHT31;57680;54.292;18.598;2024-01-15T10:52:46;2.40;82.00
70271;SHT31;57680;54.292;18.598;2024-01-15T10:55:11;2.33;82.15
70271;SHT31;57680;54.292;18.598;2024-01-15T10:57:37;2.45;82.37
70271;SHT31;57680;54.292;18.598;2024-01-15T11:00:04;2.70;82.48
70271;SHT31;57680;54.292;18.598;2024-01-15T11:02:29;2.74;81.48
70271;SHT31;57680;54.292;18.598;2024-01-15T11:04:55;2.71;80.78
70271;SHT31;57680;54.292;18.598;2024-01-15T11:07:22;2.61;80.84
70271;SHT31;57680;54.292;18.598;2024-01-15T11:09:49;2.54;81.19
70271;SHT31;57680;54.292;18.598;2024-01-15T11:12:16;2.30;81.25
70271;SHT31;57680;54.292;18.598;2024-01-15T11:14:46;2.27;82.55
70271;SHT31;57680;54.292;18.598;2024-01-15T11:17:12;2.17;82.85
70271;SHT31;57680;54.292;18.598;2024-01-15T11:19:42;2.14;82.67
70271;SHT31;57680;54.292;18.598;2024-01-15T11:22:08;2.27;82.70
70271;SHT31;57680;54.292;18.598;2024-01-15T11:24:39;2.13;81.31
70271;SHT31;57680;54.292;18.598;2024-01-15T11:27:05;2.11;80.76
70271;SHT31;57680;54.292;18.598;2024-01-15T11:29:35;2.33;80.01
70271;SHT31;57680;54.292;18.598;2024-01-15T11:32:05;2.19;79.79
70271;SHT31;57680;54.292;18.598;2024-01-15T11:34:59;1.99;79.71
70271;SHT31;57680;54.292;18.598;2024-01-15T11:37:26;2.10;80.32
70271;SHT31;57680;54.292;18.598;2024-01-15T11:39:56;2.26;80.13
70271;SHT31;57680;54.292;18.598;2024-01-15T11:42:25;2.36;80.65
70271;SHT31;57680;54.292;18.598;2024-01-15T11:44:51;2.31;80.68
70271;SHT31;57680;54.292;18.598;2024-01-15T11:47:33;2.16;80.73
70271;SHT31;57680;54.292;18.598;2024-01-15T11:50:06;1.93;82.26
70271;SHT31;57680;54.292;18.598;2024-01-15T11:52:33;1.82;82.89
70271;SHT31;57680;54.292;18.598;2024-01-15T11:55:16;1.58;82.93
70271;SHT31;57680;54.292;18.598;2024-01-15T11:57:46;1.51;83.16
70271;SHT31;57680;54.292;18.598;2024-01-15T12:00:13;1.45;83.92
70271;SHT31;57680;54.292;18.598;2024-01-15T12:02:48;1.37;84.23
70271;SHT31;57680;54.292;18.598;2024-01-15T12:05:16;1.26;83.95
70271;SHT31;57680;54.292;18.598;2024-01-15T12:07:49;1.20;84.16
70271;SHT31;57680;54.292;18.598;2024-01-15T12:10:19;1.14;84.12
70271;SHT31;57680;54.292;18.598;2024-01-15T12:13:02;1.13;83.90
70271;SHT31;57680;54.292;18.598;2024-01-15T12:15:30;1.04;84.75
70271;SHT31;57680;54.292;18.598;2024-01-15T12:17:56;0.99;85.73
70271;SHT31;57680;54.292;18.598;2024-01-15T12:20:23;0.91;86.89
70271;SHT31;57680;54.292;18.598;2024-01-15T12:22:49;0.87;87.82
70271;SHT31;57680;54.292;18.598;2024-01-15T12:25:14;0.81;88.02
70271;SHT31;57680;54.292;18.598;2024-01-15T12:27:39;0.75;89.15
70271;SHT31;57680;54.292;18.598;2024-01-15T12:30:05;0.69;89.59
70271;SHT31;57680;54.292;18.598;2024-01-15T12:32:31;0.77;89.90
70271;SHT31;57680;54.292;18.598;2024-01-15T12:34:56;0.77;89.89
70271;SHT31;57680;54.292;18.598;2024-01-15T12:37:21;0.87;89.49
70271;SHT31;57680;54.292;18.598;2024-01-15T12:39:47;0.96;89.77
70271;SHT31;57680;54.292;18.598;2024-01-15T12:42:16;0.89;89.13
70271;SHT31;57680;54.292;18.598;2024-01-15T12:44:42;0.91;88.19
70271;SHT31;57680;54.292;18.598;2024-01-15T12:47:07;0.86;88.87
70271;SHT31;57680;54.292;18.598;2024-01-15T12:49:33;0.79;89.70
70271;SHT31;57680;54.292;18.598;2024-01-15T12:51:59;0.72;90.45
70271;SHT31;57680;54.292;18.598;2024-01-15T12:54:25;0.58;91.72
70271;SHT31;57680;54.292;18.598;2024-01-15T12:56:50;0.50;92.96
70271;SHT31;57680;54.292;18.598;2024-01-15T12:59:18;0.38;94.28
70271;SHT31;57680;54.292;18.598;2024-01-15T13:01:44;0.33;94.56
70271;SHT31;57680;54.292;18.598;2024-01-15T13:04:09;0.31;94.72
70271;SHT31;57680;54.292;18.598;2024-01-15T13:06:35;0.26;94.88
70271;SHT31;57680;54.292;18.598;2024-01-15T13:09:00;0.24;95.08
70271;SHT31;57680;54.292;18.598;2024-01-15T13:11:27;0.35;94.20
70271;SHT31;57680;54.292;18.598;2024-01-15T13:13:52;0.33;93.69
70271;SHT31;57680;54.292;18.598;2024-01-15T13:16:18;0.42;93.50
70271;SHT31;57680;54.292;18.598;2024-01-15T13:18:43;0.39;92.68
70271;SHT31;57680;54.292;18.598;2024-01-15T13:21:09;0.39;92.45
70271;SHT31;57680;54.292;18.598;2024-01-15T13:23:34;0.45;92.80
70271;SHT31;57680;54.292;18.598;2024-01-15T13:25:59;0.42;92.47
70271;SHT31;57680;54.292;18.598;2024-01-15T13:28:25;0.37;92.57
70271;SHT31;57680;54.292;18.598;2024-01-15T13:30:50;0.41;92.07
70271;SHT31;57680;54.292;18.598;2024-01-15T13:33:15;0.48;90.81
70271;SHT31;57680;54.292;18.598;2024-01-15T13:35:41;0.52;90.19
70271;SHT31;57680;54.292;18.598;2024-01-15T13:38:06;0.52;89.18
70271;SHT31;57680;54.292;18.598;2024-01-15T13:40:31;0.49;89.57
70271;SHT31;57680;54.292;18.598;2024-01-15T13:42:57;0.45;89.84
70271;SHT31;57680;54.292;18.598;2024-01-15T13:45:22;0.42;90.13
70271;SHT31;57680;54.292;18.598;2024-01-15T13:47:47;0.41;90.16
70271;SHT31;57680;54.292;18.598;2024-01-15T13:50:13;0.50;89.62
70271;SHT31;57680;54.292;18.598;2024-01-15T13:52:38;0.58;88.59
70271;SHT31;57680;54.292;18.598;2024-01-15T13:55:03;0.55;89.19
70271;SHT31;57680;54.292;18.598;2024-01-15T13:57:29;0.52;89.37
70271;SHT31;57680;54.292;18.598;2024-01-15T13:59:54;0.52;90.01
70271;SHT31;57680;54.292;18.598;2024-01-15T14:02:19;0.49;89.71
70271;SHT31;57680;54.292;18.598;2024-01-15T14:04:45;0.46;90.23
70271;SHT31;57680;54.292;18.598;2024-01-15T14:07:10;0.35;89.64
70271;SHT31;57680;54.292;18.598;2024-01-15T14:09:36;0.37;89.09
70271;SHT31;57680;54.292;18.598;2024-01-15T14:12:01;0.41;88.04
70271;SHT31;57680;54.292;18.598;2024-01-15T14:14:26;0.44;88.16
70271;SHT31;57680;54.292;18.598;2024-01-15T14:16:52;0.53;87.10
70271;SHT31;57680;54.292;18.598;2024-01-15T14:19:17;0.50;86.57
70271;SHT31;57680;54.292;18.598;2024-01-15T14:21:42;0.53;86.87
70271;SHT31;57680;54.292;18.598;2024-01-15T14:24:07;0.55;86.74
70271;SHT31;57680;54.292;18.598;2024-01-15T14:26:33;0.52;86.52
70271;SHT31;57680;54.292;18.598;2024-01-15T14:28:58;0.53;86.65
70271;SHT31;57680;54.292;18.598;2024-01-15T14:31:24;0.52;86.56
70271;SHT31;57680;54.292;18.598;2024-01-15T14:33:49;0.45;87.39
70271;SHT31;57680;54.292;18.598;2024-01-15T14:36:15;0.35;88.61
70271;SHT31;57680;54.292;18.598;2024-01-15T14:38:40;0.15;88.73
70271;SHT31;57680;54.292;18.598;2024-01-15T14:41:05;0.05;89.62
70271;SHT31;57680;54.292;18.598;2024-01-15T14:43:30;0.02;89.50
70271;SHT31;57680;54.292;18.598;2024-01-15T14:45:56;0.01;89.88
70271;SHT31;57680;54.292;18.598;2024-01-15T14:48:21;-0.03;90.70
70271;SHT31;57680;54.292;18.598;2024-01-15T14:50:46;-0.07;92.59
70271;SHT31;57680;54.292;18.598;2024-01-15T14:53:11;-0.30;92.83
70271;SHT31;57680;54.292;18.598;2024-01-15T14:55:37;-0.37;93.84
70271;SHT31;57680;54.292;18.598;2024-01-15T14:58:02;-0.50;94.43
70271;SHT31;57680;54.292;18.598;2024-01-15T15:00:27;-0.51;95.51
70271;SHT31;57680;54.292;18.598;2024-01-15T15:02:53;-0.60;95.64
70271;SHT31;57680;54.292;18.598;2024-01-15T15:05:18;-0.58;95.67
70271;SHT31;57680;54.292;18.598;2024-01-15T15:07:43;-0.77;96.66
70271;SHT31;57680;54.292;18.598;2024-01-15T15:10:09;-0.74;97.67
70271;SHT31;57680;54.292;18.598;2024-01-15T15:12:34;-0.72;97.47
70271;SHT31;57680;54.292;18.598;2024-01-15T15:15:00;-0.82;98.06
70271;SHT31;57680;54.292;18.598;2024-01-15T15:17:25;-0.75;97.92
70271;SHT31;57680;54.292;18.598;2024-01-15T15:19:51;-0.65;97.43
70271;SHT31;57680;54.292;18.598;2024-01-15T15:22:16;-0.70;96.90